createdAt,value
2022-08-29T00:00:06.195Z,100.00
2022-08-29T00:01:06.195Z,100.00
2022-08-29T00:02:06.243Z,100.00
2022-08-29T00:03:08.553Z,100.00
2022-08-29T00:04:06.530Z,100.00
2022-08-29T00:05:06.188Z,100.00
2022-08-29T00:06:06.181Z,100.00
2022-08-29T00:07:06.188Z,100.00
2022-08-29T00:08:06.206Z,100.00
2022-08-29T00:09:06.215Z,100.00
2022-08-29T00:10:06.210Z,100.00
2022-08-29T00:11:06.182Z,100.00
2022-08-29T00:12:06.206Z,100.00
2022-08-29T00:13:06.230Z,100.00
2022-08-29T00:14:06.211Z,100.00
2022-08-29T00:15:06.225Z,100.00
2022-08-29T00:16:06.282Z,100.00
2022-08-29T00:17:06.209Z,100.00
2022-08-29T00:18:06.191Z,100.00
2022-08-29T00:19:06.213Z,100.00
2022-08-29T00:20:06.216Z,100.00
2022-08-29T00:21:06.224Z,100.00
2022-08-29T00:22:06.198Z,100.00
2022-08-29T00:23:06.211Z,100.00
2022-08-29T00:24:06.232Z,100.00
2022-08-29T00:25:06.214Z,100.00
2022-08-29T00:26:06.237Z,100.00
2022-08-29T00:27:06.222Z,100.00
2022-08-29T00:28:06.218Z,100.00
2022-08-29T00:29:06.250Z,100.00
2022-08-29T00:30:06.226Z,100.00
2022-08-29T00:31:06.223Z,100.00
2022-08-29T00:32:06.300Z,100.00
2022-08-29T00:33:06.280Z,100.00
2022-08-29T00:34:06.224Z,100.00
2022-08-29T00:35:06.204Z,100.00
2022-08-29T00:36:06.251Z,100.00
2022-08-29T00:37:06.235Z,100.00
2022-08-29T00:38:06.250Z,100.00
2022-08-29T00:39:09.207Z,100.00
2022-08-29T00:40:06.313Z,100.00
2022-08-29T00:41:06.254Z,100.00
2022-08-29T00:42:06.243Z,100.00
2022-08-29T00:43:06.241Z,100.00
2022-08-29T00:44:06.245Z,100.00
2022-08-29T00:45:06.255Z,100.00
2022-08-29T00:46:06.310Z,100.00
2022-08-29T00:47:06.255Z,100.00
2022-08-29T00:48:06.255Z,100.00
2022-08-29T00:49:06.239Z,100.00
2022-08-29T00:50:06.260Z,100.00
2022-08-29T00:51:06.257Z,100.00
2022-08-29T00:52:06.255Z,100.00
2022-08-29T00:53:06.245Z,100.00
2022-08-29T00:54:06.229Z,100.00
2022-08-29T00:55:06.245Z,100.00
2022-08-29T00:56:06.234Z,100.00
2022-08-29T00:57:06.247Z,100.00
2022-08-29T00:58:06.273Z,100.00
2022-08-29T00:59:06.274Z,100.00
2022-08-29T01:00:06.272Z,100.00
2022-08-29T01:01:06.321Z,100.00
2022-08-29T01:02:06.269Z,100.00
2022-08-29T01:03:06.262Z,100.00
2022-08-29T01:04:06.284Z,100.00
2022-08-29T01:05:06.257Z,100.00
2022-08-29T01:06:06.261Z,100.00
2022-08-29T01:07:06.275Z,100.00
2022-08-29T01:08:06.283Z,100.00
2022-08-29T01:09:06.261Z,100.00
2022-08-29T01:10:13.757Z,100.00
2022-08-29T01:11:06.274Z,100.00
2022-08-29T01:12:06.269Z,100.00
2022-08-29T01:13:06.275Z,100.00
2022-08-29T01:14:06.255Z,100.00
2022-08-29T01:15:06.266Z,100.00
2022-08-29T01:16:06.297Z,100.00
2022-08-29T01:17:06.262Z,100.00
2022-08-29T01:18:06.303Z,100.00
2022-08-29T01:19:06.279Z,100.00
2022-08-29T01:20:06.295Z,100.00
2022-08-29T01:21:06.297Z,100.00
2022-08-29T01:22:06.285Z,100.00
2022-08-29T01:23:06.276Z,100.00
2022-08-29T01:24:06.293Z,100.00
2022-08-29T01:25:06.297Z,100.00
2022-08-29T01:26:06.272Z,100.00
2022-08-29T01:27:06.298Z,100.00
2022-08-29T01:28:06.270Z,100.00
2022-08-29T01:29:06.299Z,100.00
2022-08-29T01:30:06.284Z,100.00
2022-08-29T01:31:06.455Z,100.00
2022-08-29T01:32:06.356Z,100.00
2022-08-29T01:33:06.309Z,100.00
2022-08-29T01:34:06.295Z,100.00
2022-08-29T01:35:06.311Z,100.00
2022-08-29T01:36:06.286Z,100.00
2022-08-29T01:37:06.281Z,100.00
2022-08-29T01:38:06.322Z,100.00
2022-08-29T01:39:06.329Z,100.00
2022-08-29T01:40:06.385Z,100.00
2022-08-29T01:41:06.303Z,100.00
2022-08-29T01:42:06.326Z,100.00
2022-08-29T01:43:06.350Z,100.00
2022-08-29T01:44:06.295Z,100.00
2022-08-29T01:45:32.515Z,100.00
2022-08-29T01:46:32.446Z,100.00
2022-08-29T01:47:32.504Z,100.00
2022-08-29T01:48:32.461Z,100.00
2022-08-29T01:49:32.507Z,100.00
2022-08-29T01:50:32.458Z,100.00
2022-08-29T01:51:32.454Z,100.00
2022-08-29T01:52:32.463Z,100.00
2022-08-29T01:53:32.453Z,100.00
2022-08-29T01:54:32.459Z,100.00
2022-08-29T01:55:32.451Z,100.00
2022-08-29T01:56:32.458Z,100.00
2022-08-29T01:57:32.472Z,100.00
2022-08-29T01:58:32.492Z,100.00
2022-08-29T01:59:32.487Z,100.00
2022-08-29T02:00:32.460Z,100.00
2022-08-29T02:01:32.550Z,100.00
2022-08-29T02:02:32.528Z,100.00
2022-08-29T02:03:32.463Z,100.00
2022-08-29T02:04:32.500Z,100.00
2022-08-29T02:05:32.468Z,100.00
2022-08-29T02:06:32.493Z,100.00
2022-08-29T02:07:32.494Z,100.00
2022-08-29T02:08:32.501Z,100.00
2022-08-29T02:09:32.473Z,100.00
2022-08-29T02:10:32.478Z,100.00
2022-08-29T02:11:32.508Z,100.00
2022-08-29T02:12:32.499Z,100.00
2022-08-29T02:13:32.498Z,100.00
2022-08-29T02:14:32.489Z,100.00
2022-08-29T02:15:32.511Z,100.00
2022-08-29T02:16:32.527Z,100.00
2022-08-29T02:17:32.475Z,100.00
2022-08-29T02:18:32.526Z,100.00
2022-08-29T02:19:32.498Z,100.00
2022-08-29T02:20:32.514Z,100.00
2022-08-29T02:21:32.519Z,100.00
2022-08-29T02:22:32.512Z,100.00
2022-08-29T02:23:32.621Z,100.00
2022-08-29T02:24:32.630Z,100.00
2022-08-29T02:25:32.638Z,100.00
2022-08-29T02:26:32.671Z,100.00
2022-08-29T02:27:32.845Z,100.00
2022-08-29T02:28:32.703Z,100.00
2022-08-29T02:29:37.008Z,100.00
2022-08-29T02:30:32.681Z,100.00
2022-08-29T02:31:32.734Z,100.00
2022-08-29T02:32:32.708Z,100.00
2022-08-29T02:33:32.710Z,100.00
2022-08-29T02:34:32.708Z,100.00
2022-08-29T02:35:35.039Z,100.00
2022-08-29T02:36:32.746Z,100.00
2022-08-29T02:37:32.737Z,100.00
2022-08-29T02:38:32.718Z,100.00
2022-08-29T02:39:32.716Z,100.00
2022-08-29T02:40:32.783Z,100.00
2022-08-29T02:41:32.741Z,100.00
2022-08-29T02:42:32.717Z,100.00
2022-08-29T02:43:32.743Z,100.00
2022-08-29T02:44:32.731Z,100.00
2022-08-29T02:45:32.744Z,100.00
2022-08-29T02:46:32.808Z,100.00
2022-08-29T02:47:32.784Z,100.00
2022-08-29T02:48:32.813Z,100.00
2022-08-29T02:49:32.770Z,100.00
2022-08-29T02:50:32.811Z,100.00
2022-08-29T02:51:32.807Z,100.00
2022-08-29T02:52:36.657Z,100.00
2022-08-29T02:53:32.845Z,100.00
2022-08-29T02:54:32.849Z,100.00
2022-08-29T02:55:32.851Z,100.00
2022-08-29T02:56:32.830Z,100.00
2022-08-29T02:57:32.820Z,100.00
2022-08-29T02:58:32.852Z,100.00
2022-08-29T02:59:32.839Z,100.00
2022-08-29T03:00:32.870Z,100.00
2022-08-29T03:01:32.862Z,100.00
2022-08-29T03:02:32.866Z,100.00
2022-08-29T03:03:32.833Z,100.00
2022-08-29T03:04:32.844Z,100.00
2022-08-29T03:05:32.839Z,100.00
2022-08-29T03:06:32.832Z,100.00
2022-08-29T03:07:32.858Z,100.00
2022-08-29T03:08:32.852Z,100.00
2022-08-29T03:09:32.846Z,100.00
2022-08-29T03:10:32.850Z,100.00
2022-08-29T03:11:32.888Z,100.00
2022-08-29T03:12:32.921Z,100.00
2022-08-29T03:13:32.921Z,100.00
2022-08-29T03:14:32.920Z,100.00
2022-08-29T03:15:32.945Z,100.00
2022-08-29T03:16:32.990Z,100.00
2022-08-29T03:17:32.979Z,100.00
2022-08-29T03:18:32.984Z,100.00
2022-08-29T03:19:37.302Z,100.00
2022-08-29T03:20:32.991Z,100.00
2022-08-29T03:21:32.960Z,100.00
2022-08-29T03:22:32.974Z,100.00
2022-08-29T03:23:33.032Z,100.00
2022-08-29T03:24:32.967Z,100.00
2022-08-29T03:25:32.995Z,100.00
2022-08-29T03:26:33.008Z,100.00
2022-08-29T03:27:32.979Z,100.00
2022-08-29T03:28:32.992Z,100.00
2022-08-29T03:29:32.976Z,100.00
2022-08-29T03:30:32.984Z,100.00
2022-08-29T03:31:33.064Z,100.00
2022-08-29T03:32:33.011Z,100.00
2022-08-29T03:33:33.029Z,100.00
2022-08-29T03:34:33.025Z,100.00
2022-08-29T03:35:33.020Z,100.00
2022-08-29T03:36:32.992Z,100.00
2022-08-29T03:37:32.999Z,100.00
2022-08-29T03:38:33.017Z,100.00
2022-08-29T03:39:33.032Z,100.00
2022-08-29T03:40:33.112Z,100.00
2022-08-29T03:41:33.006Z,100.00
2022-08-29T03:42:32.996Z,100.00
2022-08-29T03:43:33.031Z,100.00
2022-08-29T03:44:33.038Z,100.00
2022-08-29T03:45:32.987Z,100.00
2022-08-29T03:46:33.072Z,100.00
2022-08-29T03:47:33.007Z,100.00
2022-08-29T03:48:33.063Z,100.00
2022-08-29T03:49:33.056Z,100.00
2022-08-29T03:50:33.056Z,100.00
2022-08-29T03:51:33.050Z,100.00
2022-08-29T03:52:33.075Z,100.00
2022-08-29T03:53:33.095Z,100.00
2022-08-29T03:54:33.113Z,100.00
2022-08-29T03:55:33.134Z,100.00
2022-08-29T03:56:33.124Z,100.00
2022-08-29T03:57:33.162Z,100.00
2022-08-29T03:58:33.183Z,100.00
2022-08-29T03:59:33.151Z,100.00
2022-08-29T04:00:33.199Z,100.00
2022-08-29T04:01:33.239Z,100.00
2022-08-29T04:02:33.239Z,100.00
2022-08-29T04:03:33.206Z,100.00
2022-08-29T04:04:33.267Z,100.00
2022-08-29T04:05:33.277Z,100.00
2022-08-29T04:06:33.238Z,100.00
2022-08-29T04:07:33.265Z,100.00
2022-08-29T04:08:33.312Z,100.00
2022-08-29T04:09:33.266Z,100.00
2022-08-29T04:10:33.323Z,100.00
2022-08-29T04:11:33.327Z,100.00
2022-08-29T04:12:33.323Z,100.00
2022-08-29T04:13:33.355Z,100.00
2022-08-29T04:14:33.362Z,100.00
2022-08-29T04:15:33.357Z,100.00
2022-08-29T04:16:33.425Z,100.00
2022-08-29T04:17:33.381Z,100.00
2022-08-29T04:18:33.395Z,100.00
2022-08-29T04:19:33.427Z,100.00
2022-08-29T04:20:33.442Z,100.00
2022-08-29T04:21:33.478Z,100.00
2022-08-29T04:22:33.450Z,100.00
2022-08-29T04:23:33.493Z,100.00
2022-08-29T04:24:33.492Z,100.00
2022-08-29T04:25:36.847Z,100.00
2022-08-29T04:26:36.928Z,100.00
2022-08-29T04:27:33.502Z,100.00
2022-08-29T04:28:33.503Z,100.00
2022-08-29T04:29:33.477Z,100.00
2022-08-29T04:30:33.473Z,100.00
2022-08-29T04:31:33.530Z,100.00
2022-08-29T04:32:33.510Z,100.00
2022-08-29T04:33:33.492Z,100.00
2022-08-29T04:34:33.498Z,100.00
2022-08-29T04:35:33.492Z,100.00
2022-08-29T04:36:33.498Z,100.00
2022-08-29T04:37:33.481Z,100.00
2022-08-29T04:38:33.509Z,100.00
2022-08-29T04:39:33.522Z,100.00
2022-08-29T04:40:33.550Z,100.00
2022-08-29T04:41:33.503Z,100.00
2022-08-29T04:42:33.502Z,100.00
2022-08-29T04:43:33.508Z,100.00
2022-08-29T04:44:33.504Z,100.00
2022-08-29T04:45:33.509Z,100.00
2022-08-29T04:46:33.538Z,100.00
2022-08-29T04:47:33.507Z,100.00
2022-08-29T04:48:33.518Z,100.00
2022-08-29T04:49:33.512Z,100.00
2022-08-29T04:50:33.505Z,100.00
2022-08-29T04:51:33.500Z,100.00
2022-08-29T04:52:33.514Z,100.00
2022-08-29T04:53:33.534Z,100.00
2022-08-29T04:54:33.504Z,100.00
2022-08-29T04:55:33.521Z,100.00
2022-08-29T04:56:33.504Z,100.00
2022-08-29T04:57:33.498Z,100.00
2022-08-29T04:58:33.547Z,100.00
2022-08-29T04:59:33.509Z,100.00
2022-08-29T05:00:33.512Z,100.00
2022-08-29T05:01:33.579Z,100.00
2022-08-29T05:02:33.638Z,100.00
2022-08-29T05:03:33.539Z,100.00
2022-08-29T05:04:33.533Z,100.00
2022-08-29T05:05:33.526Z,100.00
2022-08-29T05:06:33.518Z,100.00
2022-08-29T05:07:33.540Z,100.00
2022-08-29T05:08:33.561Z,100.00
2022-08-29T05:09:33.512Z,100.00
2022-08-29T05:10:33.521Z,100.00
2022-08-29T05:11:33.535Z,100.00
2022-08-29T05:12:33.550Z,100.00
2022-08-29T05:13:33.517Z,100.00
2022-08-29T05:14:33.525Z,100.00
2022-08-29T05:15:33.601Z,100.00
2022-08-29T05:16:33.533Z,100.00
2022-08-29T05:17:33.550Z,100.00
2022-08-29T05:18:33.539Z,100.00
2022-08-29T05:19:34.602Z,100.00
2022-08-29T05:20:33.535Z,100.00
2022-08-29T05:21:33.991Z,100.00
2022-08-29T05:22:33.545Z,100.00
2022-08-29T05:23:33.569Z,100.00
2022-08-29T05:24:33.526Z,100.00
2022-08-29T05:25:33.541Z,100.00
2022-08-29T05:26:33.557Z,100.00
2022-08-29T05:27:33.543Z,100.00
2022-08-29T05:28:33.550Z,100.00
2022-08-29T05:29:33.552Z,100.00
2022-08-29T05:30:35.026Z,100.00
2022-08-29T05:31:33.591Z,100.00
2022-08-29T05:32:33.542Z,100.00
2022-08-29T05:33:33.554Z,100.00
2022-08-29T05:34:35.065Z,100.00
2022-08-29T05:35:33.546Z,100.00
2022-08-29T05:36:33.554Z,100.00
2022-08-29T05:37:33.569Z,100.00
2022-08-29T05:38:33.569Z,100.00
2022-08-29T05:39:33.565Z,100.00
2022-08-29T05:40:33.632Z,100.00
2022-08-29T05:41:38.389Z,100.00
2022-08-29T05:42:33.540Z,100.00
2022-08-29T05:43:33.574Z,100.00
2022-08-29T05:44:35.416Z,100.00
2022-08-29T05:45:33.563Z,100.00
2022-08-29T05:46:33.651Z,100.00
2022-08-29T05:47:33.590Z,100.00
2022-08-29T05:48:33.576Z,100.00
2022-08-29T05:49:33.599Z,100.00
2022-08-29T05:50:33.574Z,100.00
2022-08-29T05:51:38.827Z,100.00
2022-08-29T05:52:33.570Z,100.00
2022-08-29T05:53:33.571Z,100.00
2022-08-29T05:54:33.571Z,100.00
2022-08-29T05:55:33.574Z,100.00
2022-08-29T05:56:33.567Z,100.00
2022-08-29T05:57:33.588Z,100.00
2022-08-29T05:58:33.595Z,100.00
2022-08-29T05:59:33.624Z,100.00
2022-08-29T06:00:33.579Z,100.00
2022-08-29T06:01:33.577Z,100.00
2022-08-29T06:02:33.614Z,100.00
2022-08-29T06:03:33.786Z,100.00
2022-08-29T06:04:33.581Z,100.00
2022-08-29T06:05:33.587Z,100.00
2022-08-29T06:06:33.610Z,100.00
2022-08-29T06:07:33.583Z,100.00
2022-08-29T06:08:33.625Z,100.00
2022-08-29T06:09:33.585Z,100.00
2022-08-29T06:10:33.595Z,100.00
2022-08-29T06:11:33.597Z,100.00
2022-08-29T06:12:33.583Z,100.00
2022-08-29T06:13:33.625Z,100.00
2022-08-29T06:14:33.625Z,100.00
2022-08-29T06:15:33.659Z,100.00
2022-08-29T06:16:33.599Z,100.00
2022-08-29T06:17:33.593Z,100.00
2022-08-29T06:18:35.405Z,100.00
2022-08-29T06:19:33.615Z,100.00
2022-08-29T06:20:33.601Z,100.00
2022-08-29T06:21:33.574Z,100.00
2022-08-29T06:22:37.099Z,100.00
2022-08-29T06:23:33.635Z,100.00
2022-08-29T06:24:33.644Z,100.00
2022-08-29T06:25:39.526Z,100.00
2022-08-29T06:26:33.623Z,100.00
2022-08-29T06:27:33.613Z,100.00
2022-08-29T06:28:33.606Z,100.00
2022-08-29T06:29:38.463Z,100.00
2022-08-29T06:30:33.605Z,100.00
2022-08-29T06:31:33.617Z,100.00
2022-08-29T06:32:33.608Z,100.00
2022-08-29T06:33:33.639Z,100.00
2022-08-29T06:34:33.636Z,100.00
2022-08-29T06:35:33.623Z,100.00
2022-08-29T06:36:33.625Z,100.00
2022-08-29T06:37:33.641Z,100.00
2022-08-29T06:38:33.628Z,100.00
2022-08-29T06:39:33.623Z,100.00
2022-08-29T06:40:33.692Z,100.00
2022-08-29T06:41:33.646Z,100.00
2022-08-29T06:42:33.606Z,100.00
2022-08-29T06:43:33.673Z,100.00
2022-08-29T06:44:33.623Z,100.00
2022-08-29T06:45:33.617Z,100.00
2022-08-29T06:46:33.685Z,100.00
2022-08-29T06:47:33.637Z,100.00
2022-08-29T06:48:33.664Z,100.00
2022-08-29T06:49:33.647Z,100.00
2022-08-29T06:50:33.624Z,100.00
2022-08-29T06:51:33.695Z,100.00
2022-08-29T06:52:33.626Z,100.00
2022-08-29T06:53:37.407Z,100.00
2022-08-29T06:54:33.635Z,100.00
2022-08-29T06:55:33.625Z,100.00
2022-08-29T06:56:33.683Z,100.00
2022-08-29T06:57:33.657Z,100.00
2022-08-29T06:58:33.669Z,100.00
2022-08-29T06:59:33.636Z,100.00
2022-08-29T07:00:33.651Z,100.00
2022-08-29T07:01:33.695Z,100.00
2022-08-29T07:02:33.759Z,100.00
2022-08-29T07:03:33.684Z,100.00
2022-08-29T07:04:33.690Z,100.00
2022-08-29T07:05:33.654Z,100.00
2022-08-29T07:06:33.673Z,100.00
2022-08-29T07:07:33.647Z,100.00
2022-08-29T07:08:33.663Z,100.00
2022-08-29T07:09:33.644Z,100.00
2022-08-29T07:10:33.656Z,100.00
2022-08-29T07:11:36.612Z,100.00
2022-08-29T07:12:33.655Z,100.00
2022-08-29T07:13:33.665Z,100.00
2022-08-29T07:14:33.685Z,100.00
2022-08-29T07:15:33.733Z,100.00
2022-08-29T07:16:33.656Z,100.00
2022-08-29T07:17:33.760Z,100.00
2022-08-29T07:18:33.674Z,100.00
2022-08-29T07:19:33.694Z,100.00
2022-08-29T07:20:33.657Z,100.00
2022-08-29T07:21:33.675Z,100.00
2022-08-29T07:22:33.680Z,100.00
2022-08-29T07:23:33.707Z,100.00
2022-08-29T07:24:33.687Z,100.00
2022-08-29T07:25:33.688Z,100.00
2022-08-29T07:26:33.705Z,100.00
2022-08-29T07:27:33.671Z,100.00
2022-08-29T07:28:34.028Z,100.00
2022-08-29T07:29:33.674Z,100.00
2022-08-29T07:30:33.715Z,100.00
2022-08-29T07:31:33.696Z,100.00
2022-08-29T07:32:33.706Z,100.00
2022-08-29T07:33:35.109Z,100.00
2022-08-29T07:34:33.711Z,96.29
2022-08-29T07:35:33.677Z,99.13
2022-08-29T07:36:34.404Z,100.00
2022-08-29T07:37:33.711Z,97.61
2022-08-29T07:38:33.710Z,100.00
2022-08-29T07:39:33.707Z,100.00
2022-08-29T07:40:33.774Z,100.00
2022-08-29T07:41:33.705Z,99.77
2022-08-29T07:42:33.698Z,99.67
2022-08-29T07:43:33.709Z,100.00
2022-08-29T07:44:34.495Z,100.00
2022-08-29T07:45:33.734Z,100.00
2022-08-29T07:46:33.702Z,100.00
2022-08-29T07:47:33.716Z,100.00
2022-08-29T07:48:33.730Z,100.00
2022-08-29T07:49:40.977Z,100.00
2022-08-29T07:50:33.722Z,100.00
2022-08-29T07:51:33.743Z,100.00
2022-08-29T07:52:33.721Z,100.00
2022-08-29T07:53:33.731Z,100.00
2022-08-29T07:54:33.729Z,100.00
2022-08-29T07:55:33.715Z,100.00
2022-08-29T07:56:37.780Z,100.00
2022-08-29T07:57:33.710Z,100.00
2022-08-29T07:58:33.725Z,100.00
2022-08-29T07:59:33.724Z,100.00
2022-08-29T08:00:33.723Z,100.00
2022-08-29T08:01:33.756Z,100.00
2022-08-29T08:02:33.786Z,100.00
2022-08-29T08:03:33.736Z,100.00
2022-08-29T08:04:33.758Z,100.00
2022-08-29T08:05:33.755Z,100.00
2022-08-29T08:06:34.339Z,100.00
2022-08-29T08:07:33.726Z,100.00
2022-08-29T08:08:33.776Z,100.00
2022-08-29T08:09:33.743Z,100.00
2022-08-29T08:10:33.737Z,100.00
2022-08-29T08:11:33.733Z,100.00
2022-08-29T08:12:33.742Z,100.00
2022-08-29T08:13:33.761Z,100.00
2022-08-29T08:14:34.896Z,100.00
2022-08-29T08:15:33.756Z,100.00
2022-08-29T08:16:33.787Z,100.00
2022-08-29T08:17:33.742Z,100.00
2022-08-29T08:18:33.730Z,100.00
2022-08-29T08:19:33.748Z,100.00
2022-08-29T08:20:33.758Z,100.00
2022-08-29T08:21:33.777Z,100.00
2022-08-29T08:22:33.733Z,100.00
2022-08-29T08:23:33.782Z,100.00
2022-08-29T08:24:33.745Z,100.00
2022-08-29T08:25:33.748Z,100.00
2022-08-29T08:26:33.763Z,100.00
2022-08-29T08:27:36.995Z,100.00
2022-08-29T08:28:33.788Z,100.00
2022-08-29T08:29:33.752Z,100.00
2022-08-29T08:30:35.658Z,100.00
2022-08-29T08:31:33.836Z,100.00
2022-08-29T08:32:33.782Z,100.00
2022-08-29T08:33:34.846Z,100.00
2022-08-29T08:34:35.882Z,100.00
2022-08-29T08:35:33.754Z,100.00
2022-08-29T08:36:36.357Z,100.00
2022-08-29T08:37:33.782Z,100.00
2022-08-29T08:38:33.770Z,100.00
2022-08-29T08:39:33.774Z,100.00
2022-08-29T08:40:33.820Z,94.85
2022-08-29T08:41:33.767Z,95.77
2022-08-29T08:42:33.794Z,98.30
2022-08-29T08:43:33.803Z,98.35
2022-08-29T08:44:35.202Z,89.62
2022-08-29T08:45:33.790Z,92.60
2022-08-29T08:46:33.841Z,93.69
2022-08-29T08:47:33.779Z,86.37
2022-08-29T08:48:33.805Z,88.42
2022-08-29T08:49:33.781Z,82.62
2022-08-29T08:50:33.805Z,80.87
2022-08-29T08:51:33.789Z,78.11
2022-08-29T08:52:33.814Z,72.28
2022-08-29T08:53:33.786Z,67.63
2022-08-29T08:54:33.810Z,66.46
2022-08-29T08:55:33.786Z,72.18
2022-08-29T08:56:33.802Z,67.39
2022-08-29T08:57:33.796Z,69.34
2022-08-29T08:58:33.813Z,70.00
2022-08-29T08:59:33.785Z,67.42
2022-08-29T09:00:33.816Z,65.79
2022-08-29T09:01:33.843Z,67.13
2022-08-29T09:02:33.856Z,64.51
2022-08-29T09:03:33.833Z,64.45
2022-08-29T09:04:33.811Z,62.72
2022-08-29T09:05:33.792Z,60.38
2022-08-29T09:06:33.814Z,58.76
2022-08-29T09:07:33.802Z,60.54
2022-08-29T09:08:33.829Z,57.40
2022-08-29T09:09:33.818Z,58.71
2022-08-29T09:10:33.810Z,58.26
2022-08-29T09:11:33.823Z,58.76
2022-08-29T09:12:33.811Z,57.55
2022-08-29T09:13:33.836Z,58.34
2022-08-29T09:14:33.823Z,56.63
2022-08-29T09:15:33.808Z,54.34
2022-08-29T09:16:33.850Z,53.54
2022-08-29T09:17:36.496Z,53.87
2022-08-29T09:18:35.286Z,52.75
2022-08-29T09:19:33.833Z,52.30
2022-08-29T09:20:33.821Z,51.82
2022-08-29T09:21:41.889Z,51.37
2022-08-29T09:22:33.846Z,49.83
2022-08-29T09:23:33.828Z,50.16
2022-08-29T09:24:33.844Z,48.52
2022-08-29T09:25:33.834Z,51.81
2022-08-29T09:26:33.849Z,51.58
2022-08-29T09:27:33.858Z,51.16
2022-08-29T09:28:33.841Z,52.14
2022-08-29T09:29:33.834Z,51.14
2022-08-29T09:30:33.863Z,50.96
2022-08-29T09:31:33.960Z,51.01
2022-08-29T09:32:33.861Z,52.31
2022-08-29T09:33:33.862Z,51.07
2022-08-29T09:34:57.084Z,51.72
2022-08-29T09:35:33.841Z,51.95
2022-08-29T09:36:33.878Z,51.49
2022-08-29T09:37:33.851Z,51.51
2022-08-29T09:38:33.858Z,50.92
2022-08-29T09:39:33.835Z,51.90
2022-08-29T09:40:33.947Z,52.69
2022-08-29T09:41:33.882Z,52.53
2022-08-29T09:42:33.862Z,51.47
2022-08-29T09:43:33.858Z,51.02
2022-08-29T09:44:33.849Z,51.39
2022-08-29T09:45:33.927Z,49.00
2022-08-29T09:46:33.883Z,48.93
2022-08-29T09:47:33.866Z,49.92
2022-08-29T09:48:35.715Z,50.00
2022-08-29T09:49:33.854Z,48.74
2022-08-29T09:50:33.869Z,48.06
2022-08-29T09:51:33.846Z,50.12
2022-08-29T09:52:33.876Z,48.19
2022-08-29T09:53:33.894Z,48.29
2022-08-29T09:54:33.870Z,48.26
2022-08-29T09:55:33.890Z,47.97
2022-08-29T09:56:33.869Z,48.16
2022-08-29T09:57:33.880Z,48.69
2022-08-29T09:58:39.012Z,48.44
2022-08-29T09:59:33.872Z,46.87
2022-08-29T10:00:33.900Z,45.60
2022-08-29T10:01:34.864Z,44.78
2022-08-29T10:02:33.955Z,45.70
2022-08-29T10:03:33.890Z,46.44
2022-08-29T10:04:33.895Z,44.02
2022-08-29T10:05:33.915Z,44.11
2022-08-29T10:06:33.894Z,42.18
2022-08-29T10:07:37.503Z,44.04
2022-08-29T10:08:33.887Z,44.12
2022-08-29T10:09:33.899Z,44.05
2022-08-29T10:10:33.921Z,43.09
2022-08-29T10:11:33.908Z,43.18
2022-08-29T10:12:33.898Z,42.87
2022-08-29T10:13:34.239Z,42.67
2022-08-29T10:14:33.933Z,42.03
2022-08-29T10:15:49.990Z,41.30
2022-08-29T10:16:33.933Z,40.04
2022-08-29T10:17:33.946Z,39.63
2022-08-29T10:18:33.923Z,41.26
2022-08-29T10:19:34.676Z,42.05
2022-08-29T10:20:33.948Z,40.98
2022-08-29T10:21:33.898Z,40.82
2022-08-29T10:22:33.908Z,40.11
2022-08-29T10:23:33.918Z,39.42
2022-08-29T10:24:33.925Z,38.24
2022-08-29T10:25:33.914Z,38.71
2022-08-29T10:26:33.935Z,37.34
2022-08-29T10:27:33.931Z,38.43
2022-08-29T10:28:33.936Z,38.49
2022-08-29T10:29:33.920Z,39.39
2022-08-29T10:30:33.929Z,39.56
2022-08-29T10:31:34.089Z,40.21
2022-08-29T10:32:33.934Z,40.55
2022-08-29T10:33:33.934Z,39.42
2022-08-29T10:34:33.943Z,38.60
2022-08-29T10:35:33.940Z,38.12
2022-08-29T10:36:33.964Z,37.78
2022-08-29T10:37:33.930Z,38.11
2022-08-29T10:38:33.949Z,36.21
2022-08-29T10:39:33.970Z,37.36
2022-08-29T10:40:33.989Z,37.04
2022-08-29T10:41:33.972Z,37.77
2022-08-29T10:42:33.946Z,38.47
2022-08-29T10:43:33.989Z,38.49
2022-08-29T10:44:33.958Z,38.66
2022-08-29T10:45:34.012Z,38.86
2022-08-29T10:46:33.949Z,36.94
2022-08-29T10:47:33.951Z,36.03
2022-08-29T10:48:33.974Z,35.23
2022-08-29T10:49:33.975Z,37.45
2022-08-29T10:50:44.232Z,35.63
2022-08-29T10:51:33.981Z,36.33
2022-08-29T10:52:33.970Z,35.46
2022-08-29T10:53:33.979Z,35.32
2022-08-29T10:54:33.975Z,35.26
2022-08-29T10:55:33.946Z,34.83
2022-08-29T10:56:34.041Z,33.59
2022-08-29T10:57:33.948Z,34.35
2022-08-29T10:58:33.998Z,34.84
2022-08-29T10:59:33.969Z,34.89
2022-08-29T11:00:33.989Z,33.71
2022-08-29T11:01:34.022Z,32.55
2022-08-29T11:02:33.994Z,33.55
2022-08-29T11:03:34.003Z,33.97
2022-08-29T11:04:33.990Z,33.62
2022-08-29T11:05:33.991Z,33.50
2022-08-29T11:06:34.030Z,33.66
2022-08-29T11:07:34.004Z,33.96
2022-08-29T11:08:33.991Z,32.25
2022-08-29T11:09:34.001Z,32.56
2022-08-29T11:10:34.019Z,33.47
2022-08-29T11:11:34.000Z,31.85
2022-08-29T11:12:33.992Z,33.59
2022-08-29T11:13:34.026Z,32.32
2022-08-29T11:14:33.984Z,32.90
2022-08-29T11:15:34.017Z,33.09
2022-08-29T11:16:34.046Z,32.98
2022-08-29T11:17:34.024Z,31.63
2022-08-29T11:18:34.063Z,31.21
2022-08-29T11:19:34.052Z,33.54
2022-08-29T11:20:34.004Z,34.27
2022-08-29T11:21:34.005Z,31.81
2022-08-29T11:22:34.015Z,32.50
2022-08-29T11:23:34.013Z,33.37
2022-08-29T11:24:35.120Z,33.21
2022-08-29T11:25:34.013Z,33.40
2022-08-29T11:26:34.048Z,33.84
2022-08-29T11:27:34.025Z,33.72
2022-08-29T11:28:34.114Z,33.35
2022-08-29T11:29:34.027Z,34.08
2022-08-29T11:30:37.577Z,33.01
2022-08-29T11:31:34.174Z,31.82
2022-08-29T11:32:36.195Z,31.18
2022-08-29T11:33:34.021Z,31.95
2022-08-29T11:34:34.032Z,31.69
2022-08-29T11:35:34.049Z,32.22
2022-08-29T11:36:34.038Z,33.38
2022-08-29T11:37:34.032Z,34.71
2022-08-29T11:38:34.068Z,34.61
2022-08-29T11:39:34.066Z,34.23
2022-08-29T11:40:48.594Z,34.46
2022-08-29T11:41:34.124Z,34.73
2022-08-29T11:42:51.712Z,34.99
2022-08-29T11:43:34.048Z,35.56
2022-08-29T11:44:34.080Z,33.38
2022-08-29T11:45:35.640Z,33.61
2022-08-29T11:46:34.090Z,34.05
2022-08-29T11:47:40.720Z,31.98
2022-08-29T11:48:34.079Z,30.96
2022-08-29T11:49:34.054Z,31.88
2022-08-29T11:50:34.083Z,31.71
2022-08-29T11:51:36.010Z,32.41
2022-08-29T11:52:34.095Z,32.57
2022-08-29T11:53:34.245Z,31.73
2022-08-29T11:54:34.089Z,31.87
2022-08-29T11:55:34.046Z,32.49
2022-08-29T11:56:34.103Z,31.81
2022-08-29T11:57:34.239Z,31.45
2022-08-29T11:58:34.066Z,30.24
2022-08-29T11:59:34.070Z,30.78
2022-08-29T12:00:34.054Z,31.44
2022-08-29T12:01:34.114Z,31.26
2022-08-29T12:02:34.073Z,32.49
2022-08-29T12:03:34.921Z,32.80
2022-08-29T12:04:34.116Z,31.31
2022-08-29T12:05:34.093Z,31.52
2022-08-29T12:06:34.082Z,30.59
2022-08-29T12:07:34.078Z,29.48
2022-08-29T12:08:37.354Z,31.21
2022-08-29T12:09:34.093Z,30.59
2022-08-29T12:10:34.090Z,31.61
2022-08-29T12:11:34.113Z,31.61
2022-08-29T12:12:34.095Z,32.67
2022-08-29T12:13:34.103Z,32.95
2022-08-29T12:14:37.801Z,32.04
2022-08-29T12:15:34.106Z,33.16
2022-08-29T12:16:34.238Z,32.89
2022-08-29T12:17:58.155Z,33.00
2022-08-29T12:18:36.502Z,32.59
2022-08-29T12:19:34.192Z,30.41
2022-08-29T12:20:34.229Z,31.16
2022-08-29T12:21:34.231Z,32.53
2022-08-29T12:22:34.263Z,32.36
2022-08-29T12:23:35.773Z,32.79
2022-08-29T12:24:34.263Z,31.72
2022-08-29T12:25:34.299Z,31.14
2022-08-29T12:26:34.291Z,30.45
2022-08-29T12:27:34.312Z,31.14
2022-08-29T12:28:34.368Z,30.08
2022-08-29T12:29:41.317Z,29.23
2022-08-29T12:30:34.314Z,29.80
2022-08-29T12:31:34.319Z,29.85
2022-08-29T12:32:34.354Z,28.54
2022-08-29T12:33:34.354Z,29.28
2022-08-29T12:34:34.331Z,30.05
2022-08-29T12:35:34.328Z,29.85
2022-08-29T12:36:34.316Z,29.17